sensor_id;sensor_type;location;lat;lon;timestamp;pressure;altitude;pressure_sealevel;temperature;humidity
54936;BME280;40838;50.676;7.838;2023-09-18T00:00:10;97582.50;;;18.97;100.00
54936;BME280;40838;50.676;7.838;2023-09-18T00:02:38;97584.69;;;19.03;100.00
54936;BME280;40838;50.676;7.838;2023-09-18T00:05:05;97568.59;;;19.03;100.00
54936;BME280;40838;50.676;7.838;2023-09-18T00:07:32;97574.13;;;18.98;100.00
54936;BME280;40838;50.676;7.838;2023-09-18T00:09:59;97563.03;;;19.09;100.00
54936;BME280;40838;50.676;7.838;2023-09-18T00:12:26;97558.00;;;19.07;100.00
54936;BME280;40838;50.676;7.838;2023-09-18T00:14:52;97556.75;;;19.04;100.00
54936;BME280;40838;50.676;7.838;2023-09-18T00:17:20;97551.25;;;19.01;100.00
54936;BME280;40838;50.676;7.838;2023-09-18T00:19:49;97557.44;;;18.93;100.00
54936;BME280;40838;50.676;7.838;2023-09-18T00:22:17;97552.41;;;18.91;100.00
54936;BME280;40838;50.676;7.838;2023-09-18T00:24:43;97539.84;;;18.83;100.00
54936;BME280;40838;50.676;7.838;2023-09-18T00:27:10;97534.09;;;18.93;100.00
54936;BME280;40838;50.676;7.838;2023-09-18T00:29:38;97536.09;;;18.75;100.00
54936;BME280;40838;50.676;7.838;2023-09-18T00:32:05;97534.53;;;18.74;100.00
54936;BME280;40838;50.676;7.838;2023-09-18T00:34:33;97534.19;;;18.76;100.00
54936;BME280;40838;50.676;7.838;2023-09-18T00:37:00;97529.16;;;18.74;100.00
54936;BME280;40838;50.676;7.838;2023-09-18T00:39:27;97531.56;;;18.67;100.00
54936;BME280;40838;50.676;7.838;2023-09-18T00:41:57;97537.06;;;18.71;100.00
54936;BME280;40838;50.676;7.838;2023-09-18T00:44:24;97516.22;;;18.76;100.00
54936;BME280;40838;50.676;7.838;2023-09-18T00:46:51;97511.84;;;18.72;100.00
54936;BME280;40838;50.676;7.838;2023-09-18T00:49:20;97518.41;;;18.83;100.00
54936;BME280;40838;50.676;7.838;2023-09-18T00:51:50;97531.84;;;18.74;100.00
54936;BME280;40838;50.676;7.838;2023-09-18T00:54:19;97513.56;;;18.68;100.00
54936;BME280;40838;50.676;7.838;2023-09-18T00:56:46;97516.25;;;18.68;100.00
54936;BME280;40838;50.676;7.838;2023-09-18T00:59:14;97503.16;;;18.75;100.00
54936;BME280;40838;50.676;7.838;2023-09-18T01:01:44;97502.31;;;18.83;100.00
54936;BME280;40838;50.676;7.838;2023-09-18T01:04:12;97501.19;;;18.84;100.00
54936;BME280;40838;50.676;7.838;2023-09-18T01:06:39;97488.69;;;18.88;100.00
54936;BME280;40838;50.676;7.838;2023-09-18T01:09:07;97493.81;;;18.81;100.00
54936;BME280;40838;50.676;7.838;2023-09-18T01:11:43;97495.09;;;18.75;100.00
54936;BME280;40838;50.676;7.838;2023-09-18T01:14:19;97491.47;;;18.71;100.00
54936;BME280;40838;50.676;7.838;2023-09-18T01:16:50;97491.72;;;18.87;100.00
54936;BME280;40838;50.676;7.838;2023-09-18T01:19:34;97494.53;;;18.90;100.00
54936;BME280;40838;50.676;7.838;2023-09-18T01:22:02;97486.31;;;18.95;100.00
54936;BME280;40838;50.676;7.838;2023-09-18T01:24:31;97485.19;;;18.96;100.00
54936;BME280;40838;50.676;7.838;2023-09-18T01:26:57;97485.19;;;18.96;100.00
54936;BME280;40838;50.676;7.838;2023-09-18T01:29:24;97489.81;;;18.87;100.00
54936;BME280;40838;50.676;7.838;2023-09-18T01:31:51;97500.28;;;18.80;100.00
54936;BME280;40838;50.676;7.838;2023-09-18T01:34:18;97510.03;;;18.84;100.00
54936;BME280;40838;50.676;7.838;2023-09-18T01:36:46;97500.66;;;18.70;100.00
54936;BME280;40838;50.676;7.838;2023-09-18T01:39:15;97497.69;;;18.63;100.00
54936;BME280;40838;50.676;7.838;2023-09-18T01:41:43;97496.06;;;18.70;100.00
54936;BME280;40838;50.676;7.838;2023-09-18T01:44:11;97496.00;;;18.79;100.00
54936;BME280;40838;50.676;7.838;2023-09-18T01:46:38;97487.78;;;18.84;100.00
54936;BME280;40838;50.676;7.838;2023-09-18T01:49:06;97496.09;;;18.91;100.00
54936;BME280;40838;50.676;7.838;2023-09-18T01:51:32;97480.75;;;19.00;100.00
54936;BME280;40838;50.676;7.838;2023-09-18T01:54:00;97467.84;;;18.94;100.00
54936;BME280;40838;50.676;7.838;2023-09-18T01:56:28;97469.09;;;18.96;100.00
54936;BME280;40838;50.676;7.838;2023-09-18T01:58:56;97475.53;;;19.04;100.00
54936;BME280;40838;50.676;7.838;2023-09-18T02:01:23;97463.47;;;19.10;100.00
54936;BME280;40838;50.676;7.838;2023-09-18T02:03:50;97477.34;;;19.12;100.00
54936;BME280;40838;50.676;7.838;2023-09-18T02:06:18;97522.75;;;19.17;100.00
54936;BME280;40838;50.676;7.838;2023-09-18T02:08:45;97546.59;;;19.61;100.00
54936;BME280;40838;50.676;7.838;2023-09-18T02:11:12;97557.75;;;19.84;100.00
54936;BME280;40838;50.676;7.838;2023-09-18T02:13:39;97575.38;;;19.72;100.00
54936;BME280;40838;50.676;7.838;2023-09-18T02:16:07;97570.25;;;20.34;100.00
54936;BME280;40838;50.676;7.838;2023-09-18T02:18:34;97569.06;;;20.68;100.00
54936;BME280;40838;50.676;7.838;2023-09-18T02:21:00;97565.22;;;20.45;100.00
54936;BME280;40838;50.676;7.838;2023-09-18T02:23:27;97569.91;;;20.02;100.00
54936;BME280;40838;50.676;7.838;2023-09-18T02:25:57;97570.34;;;19.92;100.00
54936;BME280;40838;50.676;7.838;2023-09-18T02:28:24;97559.94;;;19.69;100.00
54936;BME280;40838;50.676;7.838;2023-09-18T02:30:51;97556.41;;;19.36;100.00
54936;BME280;40838;50.676;7.838;2023-09-18T02:33:19;97551.16;;;19.18;100.00
54936;BME280;40838;50.676;7.838;2023-09-18T02:35:46;97531.34;;;18.81;100.00
54936;BME280;40838;50.676;7.838;2023-09-18T02:38:13;97524.22;;;18.47;100.00
54936;BME280;40838;50.676;7.838;2023-09-18T02:40:39;97512.19;;;18.14;100.00
54936;BME280;40838;50.676;7.838;2023-09-18T02:43:06;97481.47;;;18.12;100.00
54936;BME280;40838;50.676;7.838;2023-09-18T02:45:33;97468.69;;;17.70;100.00
54936;BME280;40838;50.676;7.838;2023-09-18T02:47:59;97447.59;;;17.52;100.00
54936;BME280;40838;50.676;7.838;2023-09-18T02:50:27;97413.78;;;17.38;100.00
54936;BME280;40838;50.676;7.838;2023-09-18T02:52:54;97403.28;;;16.90;100.00
54936;BME280;40838;50.676;7.838;2023-09-18T02:55:21;97394.94;;;16.91;100.00
54936;BME280;40838;50.676;7.838;2023-09-18T02:57:48;97388.03;;;16.90;100.00
54936;BME280;40838;50.676;7.838;2023-09-18T03:00:15;97391.16;;;16.66;100.00
54936;BME280;40838;50.676;7.838;2023-09-18T03:02:42;97396.94;;;16.59;100.00
54936;BME280;40838;50.676;7.838;2023-09-18T03:05:11;97399.31;;;16.70;100.00
54936;BME280;40838;50.676;7.838;2023-09-18T03:07:39;97379.50;;;16.71;100.00
54936;BME280;40838;50.676;7.838;2023-09-18T03:10:07;97369.78;;;16.92;100.00
54936;BME280;40838;50.676;7.838;2023-09-18T03:12:38;97381.09;;;16.98;100.00
54936;BME280;40838;50.676;7.838;2023-09-18T03:15:06;97383.00;;;17.06;100.00
54936;BME280;40838;50.676;7.838;2023-09-18T03:17:34;97377.03;;;16.92;100.00
54936;BME280;40838;50.676;7.838;2023-09-18T03:20:01;97387.72;;;16.92;100.00
54936;BME280;40838;50.676;7.838;2023-09-18T03:22:27;97383.00;;;16.89;100.00
54936;BME280;40838;50.676;7.838;2023-09-18T03:24:55;97388.03;;;16.82;100.00
54936;BME280;40838;50.676;7.838;2023-09-18T03:27:22;97384.72;;;16.93;100.00
54936;BME280;40838;50.676;7.838;2023-09-18T03:29:54;97378.25;;;17.20;100.00
54936;BME280;40838;50.676;7.838;2023-09-18T03:32:21;97388.28;;;17.41;100.00
54936;BME280;40838;50.676;7.838;2023-09-18T03:34:50;97400.22;;;17.52;100.00
54936;BME280;40838;50.676;7.838;2023-09-18T03:37:17;97411.22;;;17.51;100.00
54936;BME280;40838;50.676;7.838;2023-09-18T03:39:43;97426.50;;;17.67;100.00
54936;BME280;40838;50.676;7.838;2023-09-18T03:42:12;97416.25;;;17.78;100.00
54936;BME280;40838;50.676;7.838;2023-09-18T03:44:39;97408.63;;;17.89;100.00
54936;BME280;40838;50.676;7.838;2023-09-18T03:47:05;97421.75;;;17.82;100.00
54936;BME280;40838;50.676;7.838;2023-09-18T03:49:32;97408.41;;;17.56;100.00
54936;BME280;40838;50.676;7.838;2023-09-18T03:51:59;97407.75;;;17.76;100.00
54936;BME280;40838;50.676;7.838;2023-09-18T03:54:26;97420.03;;;17.68;100.00
54936;BME280;40838;50.676;7.838;2023-09-18T03:56:55;97424.16;;;17.66;100.00
54936;BME280;40838;50.676;7.838;2023-09-18T03:59:23;97405.56;;;17.69;100.00
54936;BME280;40838;50.676;7.838;2023-09-18T04:01:49;97408.72;;;17.72;100.00
54936;BME280;40838;50.676;7.838;2023-09-18T04:04:16;97403.16;;;17.77;100.00
54936;BME280;40838;50.676;7.838;2023-09-18T04:06:43;97401.09;;;17.82;100.00
54936;BME280;40838;50.676;7.838;2023-09-18T04:09:11;97403.03;;;17.73;100.00
54936;BME280;40838;50.676;7.838;2023-09-18T04:11:41;97414.34;;;17.79;100.00
54936;BME280;40838;50.676;7.838;2023-09-18T04:14:08;97409.47;;;17.81;100.00
54936;BME280;40838;50.676;7.838;2023-09-18T04:16:36;97411.19;;;17.77;100.00
54936;BME280;40838;50.676;7.838;2023-09-18T04:19:07;97409.88;;;17.91;100.00
54936;BME280;40838;50.676;7.838;2023-09-18T04:21:35;97414.78;;;17.98;100.00
54936;BME280;40838;50.676;7.838;2023-09-18T04:24:02;97412.72;;;17.95;100.00
54936;BME280;40838;50.676;7.838;2023-09-18T04:26:29;97404.88;;;17.90;100.00
54936;BME280;40838;50.676;7.838;2023-09-18T04:28:57;97409.75;;;17.88;100.00
54936;BME280;40838;50.676;7.838;2023-09-18T04:31:24;97397.50;;;17.78;100.00
54936;BME280;40838;50.676;7.838;2023-09-18T04:33:53;97380.84;;;17.73;100.00
54936;BME280;40838;50.676;7.838;2023-09-18T04:36:20;97378.47;;;17.62;100.00
54936;BME280;40838;50.676;7.838;2023-09-18T04:38:47;97375.66;;;17.59;100.00
54936;BME280;40838;50.676;7.838;2023-09-18T04:41:14;97376.78;;;17.49;100.00
54936;BME280;40838;50.676;7.838;2023-09-18T04:43:41;97367.34;;;17.52;100.00
54936;BME280;40838;50.676;7.838;2023-09-18T04:46:09;97349.25;;;17.57;100.00
54936;BME280;40838;50.676;7.838;2023-09-18T04:48:36;97354.59;;;17.66;100.00
54936;BME280;40838;50.676;7.838;2023-09-18T04:51:06;97337.56;;;17.62;100.00
54936;BME280;40838;50.676;7.838;2023-09-18T04:53:33;97341.03;;;17.54;100.00
54936;BME280;40838;50.676;7.838;2023-09-18T04:56:02;97345.13;;;17.60;100.00
54936;BME280;40838;50.676;7.838;2023-09-18T04:58:29;97348.28;;;17.53;100.00
54936;BME280;40838;50.676;7.838;2023-09-18T05:00:57;97360.13;;;17.43;100.00
54936;BME280;40838;50.676;7.838;2023-09-18T05:03:25;97345.97;;;17.43;100.00
54936;BME280;40838;50.676;7.838;2023-09-18T05:05:54;97327.56;;;17.41;100.00
54936;BME280;40838;50.676;7.838;2023-09-18T05:08:22;97325.34;;;17.43;100.00
54936;BME280;40838;50.676;7.838;2023-09-18T05:10:49;97335.94;;;17.31;100.00
54936;BME280;40838;50.676;7.838;2023-09-18T05:13:16;97339.88;;;17.34;100.00
54936;BME280;40838;50.676;7.838;2023-09-18T05:15:43;97341.44;;;17.35;100.00
54936;BME280;40838;50.676;7.838;2023-09-18T05:18:09;97350.56;;;17.34;100.00
54936;BME280;40838;50.676;7.838;2023-09-18T05:20:39;97382.47;;;17.39;100.00
54936;BME280;40838;50.676;7.838;2023-09-18T05:23:06;97382.47;;;17.39;100.00
54936;BME280;40838;50.676;7.838;2023-09-18T05:25:35;97390.84;;;17.29;100.00
54936;BME280;40838;50.676;7.838;2023-09-18T05:28:04;97385.47;;;17.37;100.00
54936;BME280;40838;50.676;7.838;2023-09-18T05:30:32;97379.91;;;17.60;100.00
54936;BME280;40838;50.676;7.838;2023-09-18T05:33:00;97379.00;;;17.47;100.00
54936;BME280;40838;50.676;7.838;2023-09-18T05:35:30;97419.91;;;17.39;100.00
54936;BME280;40838;50.676;7.838;2023-09-18T05:37:56;97427.00;;;17.26;100.00
54936;BME280;40838;50.676;7.838;2023-09-18T05:40:24;97436.91;;;17.43;100.00
54936;BME280;40838;50.676;7.838;2023-09-18T05:42:54;97431.09;;;17.41;100.00
54936;BME280;40838;50.676;7.838;2023-09-18T05:45:21;97423.34;;;17.65;100.00
54936;BME280;40838;50.676;7.838;2023-09-18T05:47:48;97423.28;;;17.91;100.00
54936;BME280;40838;50.676;7.838;2023-09-18T05:50:16;97422.63;;;17.94;100.00
54936;BME280;40838;50.676;7.838;2023-09-18T05:52:43;97410.53;;;17.88;100.00
54936;BME280;40838;50.676;7.838;2023-09-18T05:55:11;97412.97;;;17.55;100.00
54936;BME280;40838;50.676;7.838;2023-09-18T05:57:39;97398.50;;;17.65;100.00
54936;BME280;40838;50.676;7.838;2023-09-18T06:00:09;97379.63;;;17.44;100.00
54936;BME280;40838;50.676;7.838;2023-09-18T06:02:38;97386.84;;;17.69;100.00
54936;BME280;40838;50.676;7.838;2023-09-18T06:05:06;97390.63;;;17.60;100.00
54936;BME280;40838;50.676;7.838;2023-09-18T06:07:33;97383.78;;;17.80;100.00
54936;BME280;40838;50.676;7.838;2023-09-18T06:10:00;97396.91;;;17.73;100.00
54936;BME280;40838;50.676;7.838;2023-09-18T06:12:26;97403.69;;;17.70;100.00
54936;BME280;40838;50.676;7.838;2023-09-18T06:14:53;97403.16;;;17.77;100.00
54936;BME280;40838;50.676;7.838;2023-09-18T06:17:21;97410.59;;;17.71;100.00
54936;BME280;40838;50.676;7.838;2023-09-18T06:19:48;97410.94;;;17.52;100.00
54936;BME280;40838;50.676;7.838;2023-09-18T06:22:15;97393.88;;;17.74;100.00
54936;BME280;40838;50.676;7.838;2023-09-18T06:24:42;97390.88;;;17.84;100.00
54936;BME280;40838;50.676;7.838;2023-09-18T06:27:08;97403.00;;;17.82;100.00
54936;BME280;40838;50.676;7.838;2023-09-18T06:29:36;97393.59;;;17.76;100.00
54936;BME280;40838;50.676;7.838;2023-09-18T06:32:05;97395.22;;;17.98;100.00
54936;BME280;40838;50.676;7.838;2023-09-18T06:34:33;97415.75;;;17.85;100.00
54936;BME280;40838;50.676;7.838;2023-09-18T06:37:02;97417.94;;;17.83;100.00
54936;BME280;40838;50.676;7.838;2023-09-18T06:39:31;97420.50;;;17.79;100.00
54936;BME280;40838;50.676;7.838;2023-09-18T06:42:01;97404.91;;;17.81;100.00
54936;BME280;40838;50.676;7.838;2023-09-18T06:44:28;97407.56;;;17.90;100.00
54936;BME280;40838;50.676;7.838;2023-09-18T06:46:55;97406.81;;;17.81;100.00
54936;BME280;40838;50.676;7.838;2023-09-18T06:49:21;97418.53;;;17.97;100.00
54936;BME280;40838;50.676;7.838;2023-09-18T06:51:51;97412.56;;;17.91;100.00
54936;BME280;40838;50.676;7.838;2023-09-18T06:54:18;97403.56;;;18.05;100.00
54936;BME280;40838;50.676;7.838;2023-09-18T06:56:45;97416.38;;;17.82;100.00
54936;BME280;40838;50.676;7.838;2023-09-18T06:59:11;97408.38;;;17.82;100.00
54936;BME280;40838;50.676;7.838;2023-09-18T07:01:38;97414.44;;;18.29;100.00
54936;BME280;40838;50.676;7.838;2023-09-18T07:04:07;97423.91;;;17.88;100.00
54936;BME280;40838;50.676;7.838;2023-09-18T07:06:34;97439.53;;;18.25;100.00
54936;BME280;40838;50.676;7.838;2023-09-18T07:09:04;97437.88;;;18.41;100.00
54936;BME280;40838;50.676;7.838;2023-09-18T07:11:32;97444.25;;;17.89;100.00
54936;BME280;40838;50.676;7.838;2023-09-18T07:13:59;97446.47;;;18.26;100.00
54936;BME280;40838;50.676;7.838;2023-09-18T07:16:26;97457.56;;;18.07;100.00
54936;BME280;40838;50.676;7.838;2023-09-18T07:18:53;97455.28;;;17.79;100.00
54936;BME280;40838;50.676;7.838;2023-09-18T07:21:20;97446.16;;;17.80;100.00
54936;BME280;40838;50.676;7.838;2023-09-18T07:23:46;97459.28;;;18.11;100.00
54936;BME280;40838;50.676;7.838;2023-09-18T07:26:15;97468.25;;;18.15;100.00
54936;BME280;40838;50.676;7.838;2023-09-18T07:28:42;97475.69;;;18.10;100.00
54936;BME280;40838;50.676;7.838;2023-09-18T07:31:11;97470.38;;;17.92;100.00
54936;BME280;40838;50.676;7.838;2023-09-18T07:33:40;97472.13;;;17.71;100.00
54936;BME280;40838;50.676;7.838;2023-09-18T07:36:06;97479.22;;;17.76;100.00
54936;BME280;40838;50.676;7.838;2023-09-18T07:38:35;97482.28;;;18.12;100.00
54936;BME280;40838;50.676;7.838;2023-09-18T07:41:02;97480.22;;;18.09;100.00
54936;BME280;40838;50.676;7.838;2023-09-18T07:43:31;97490.78;;;18.06;100.00
54936;BME280;40838;50.676;7.838;2023-09-18T07:45:57;97493.38;;;17.85;100.00
54936;BME280;40838;50.676;7.838;2023-09-18T07:48:25;97497.28;;;17.96;100.00
54936;BME280;40838;50.676;7.838;2023-09-18T07:50:52;97507.56;;;17.77;100.00
54936;BME280;40838;50.676;7.838;2023-09-18T07:53:20;97511.50;;;17.79;100.00
54936;BME280;40838;50.676;7.838;2023-09-18T07:55:48;97526.28;;;17.85;100.00
54936;BME280;40838;50.676;7.838;2023-09-18T07:58:15;97527.22;;;17.46;100.00
54936;BME280;40838;50.676;7.838;2023-09-18T08:00:50;97522.81;;;17.85;100.00
54936;BME280;40838;50.676;7.838;2023-09-18T08:03:19;97525.50;;;17.76;100.00
54936;BME280;40838;50.676;7.838;2023-09-18T08:05:49;97522.28;;;18.09;100.00
54936;BME280;40838;50.676;7.838;2023-09-18T08:08:16;97522.34;;;17.65;100.00
54936;BME280;40838;50.676;7.838;2023-09-18T08:10:43;97532.91;;;17.70;100.00
54936;BME280;40838;50.676;7.838;2023-09-18T08:13:10;97541.88;;;17.57;100.00
54936;BME280;40838;50.676;7.838;2023-09-18T08:15:36;97550.84;;;17.79;100.00
54936;BME280;40838;50.676;7.838;2023-09-18T08:18:05;97557.94;;;17.57;100.00
54936;BME280;40838;50.676;7.838;2023-09-18T08:20:32;97547.84;;;17.54;100.00
54936;BME280;40838;50.676;7.838;2023-09-18T08:23:00;97540.78;;;17.67;100.00
54936;BME280;40838;50.676;7.838;2023-09-18T08:25:27;97549.28;;;17.78;100.00
54936;BME280;40838;50.676;7.838;2023-09-18T08:27:53;97543.09;;;17.94;100.00
54936;BME280;40838;50.676;7.838;2023-09-18T08:30:20;97543.28;;;17.89;100.00
54936;BME280;40838;50.676;7.838;2023-09-18T08:32:47;97551.78;;;17.83;100.00
54936;BME280;40838;50.676;7.838;2023-09-18T08:35:15;97554.94;;;17.85;100.00
54936;BME280;40838;50.676;7.838;2023-09-18T08:37:43;97555.41;;;17.61;100.00
54936;BME280;40838;50.676;7.838;2023-09-18T08:40:10;97560.28;;;17.59;100.00
54936;BME280;40838;50.676;7.838;2023-09-18T08:42:41;97555.56;;;17.90;100.00
54936;BME280;40838;50.676;7.838;2023-09-18T08:45:15;97556.50;;;17.77;100.00
54936;BME280;40838;50.676;7.838;2023-09-18T08:47:45;97553.00;;;18.03;100.00
54936;BME280;40838;50.676;7.838;2023-09-18T08:50:14;97563.94;;;17.80;100.00
54936;BME280;40838;50.676;7.838;2023-09-18T08:52:41;97548.31;;;17.91;100.00
54936;BME280;40838;50.676;7.838;2023-09-18T08:55:09;97557.09;;;18.09;100.00
54936;BME280;40838;50.676;7.838;2023-09-18T08:57:38;97569.91;;;17.60;100.00
54936;BME280;40838;50.676;7.838;2023-09-18T09:00:07;97557.16;;;17.65;100.00
54936;BME280;40838;50.676;7.838;2023-09-18T09:02:37;97556.19;;;17.61;100.00
54936;BME280;40838;50.676;7.838;2023-09-18T09:05:05;97565.91;;;18.09;100.00
54936;BME280;40838;50.676;7.838;2023-09-18T09:07:35;97563.59;;;17.99;100.00
54936;BME280;40838;50.676;7.838;2023-09-18T09:10:04;97555.06;;;17.62;100.00
54936;BME280;40838;50.676;7.838;2023-09-18T09:12:56;97570.34;;;18.05;100.00
54936;BME280;40838;50.676;7.838;2023-09-18T09:15:25;97559.66;;;17.70;100.00
54936;BME280;40838;50.676;7.838;2023-09-18T09:18:02;97562.50;;;17.74;100.00
54936;BME280;40838;50.676;7.838;2023-09-18T09:20:29;97568.94;;;17.90;100.00
54936;BME280;40838;50.676;7.838;2023-09-18T09:23:01;97564.69;;;17.63;100.00
54936;BME280;40838;50.676;7.838;2023-09-18T09:25:29;97569.72;;;17.82;100.00
54936;BME280;40838;50.676;7.838;2023-09-18T09:27:58;97571.78;;;17.77;100.00
54936;BME280;40838;50.676;7.838;2023-09-18T09:30:29;97562.44;;;18.17;100.00
54936;BME280;40838;50.676;7.838;2023-09-18T09:32:57;97552.34;;;18.14;100.00
54936;BME280;40838;50.676;7.838;2023-09-18T09:35:25;97559.28;;;18.24;100.00
54936;BME280;40838;50.676;7.838;2023-09-18T09:37:57;97559.00;;;17.56;100.00
54936;BME280;40838;50.676;7.838;2023-09-18T09:40:29;97566.13;;;17.78;100.00
54936;BME280;40838;50.676;7.838;2023-09-18T09:42:57;97559.03;;;17.91;100.00
54936;BME280;40838;50.676;7.838;2023-09-18T09:45:28;97562.66;;;17.86;100.00
54936;BME280;40838;50.676;7.838;2023-09-18T09:47:57;97558.69;;;17.40;100.00
54936;BME280;40838;50.676;7.838;2023-09-18T09:50:23;97555.72;;;17.68;100.00
54936;BME280;40838;50.676;7.838;2023-09-18T09:52:53;97544.38;;;17.80;100.00
54936;BME280;40838;50.676;7.838;2023-09-18T09:55:22;97554.84;;;18.28;100.00
54936;BME280;40838;50.676;7.838;2023-09-18T09:57:53;97563.09;;;17.97;100.00
54936;BME280;40838;50.676;7.838;2023-09-18T10:00:22;97568.66;;;17.75;100.00
54936;BME280;40838;50.676;7.838;2023-09-18T10:03:00;97570.06;;;17.89;100.00
54936;BME280;40838;50.676;7.838;2023-09-18T10:05:30;97573.34;;;18.04;100.00
54936;BME280;40838;50.676;7.838;2023-09-18T10:07:59;97570.97;;;17.33;100.00
54936;BME280;40838;50.676;7.838;2023-09-18T10:10:31;97560.28;;;17.85;100.00
54936;BME280;40838;50.676;7.838;2023-09-18T10:13:06;97559.50;;;17.93;100.00
54936;BME280;40838;50.676;7.838;2023-09-18T10:15:35;97566.56;;;17.89;100.00
54936;BME280;40838;50.676;7.838;2023-09-18T10:18:07;97580.41;;;17.39;100.00
54936;BME280;40838;50.676;7.838;2023-09-18T10:20:40;97566.72;;;17.32;100.00
54936;BME280;40838;50.676;7.838;2023-09-18T10:23:17;97556.06;;;17.84;100.00
54936;BME280;40838;50.676;7.838;2023-09-18T10:25:52;97574.44;;;18.03;100.00
54936;BME280;40838;50.676;7.838;2023-09-18T10:28:23;97574.59;;;17.89;100.00
54936;BME280;40838;50.676;7.838;2023-09-18T10:30:56;97597.47;;;17.95;100.00
54936;BME280;40838;50.676;7.838;2023-09-18T10:33:23;97599.97;;;17.74;100.00
54936;BME280;40838;50.676;7.838;2023-09-18T10:35:52;97607.94;;;17.22;100.00
54936;BME280;40838;50.676;7.838;2023-09-18T10:38:20;97591.75;;;18.05;100.00
54936;BME280;40838;50.676;7.838;2023-09-18T10:40:47;97600.28;;;17.81;100.00
54936;BME280;40838;50.676;7.838;2023-09-18T10:43:16;97609.56;;;18.01;100.00
54936;BME280;40838;50.676;7.838;2023-09-18T10:45:45;97606.25;;;18.04;100.00
54936;BME280;40838;50.676;7.838;2023-09-18T10:48:14;97603.59;;;17.96;100.00
54936;BME280;40838;50.676;7.838;2023-09-18T10:50:42;97610.38;;;17.76;100.00
54936;BME280;40838;50.676;7.838;2023-09-18T10:53:11;97595.09;;;17.76;100.00
54936;BME280;40838;50.676;7.838;2023-09-18T10:55:38;97598.56;;;17.77;100.00
54936;BME280;40838;50.676;7.838;2023-09-18T10:58:06;97587.53;;;17.69;100.00
54936;BME280;40838;50.676;7.838;2023-09-18T11:00:33;97584.22;;;17.90;100.00
54936;BME280;40838;50.676;7.838;2023-09-18T11:03:13;97587.25;;;18.44;100.00
54936;BME280;40838;50.676;7.838;2023-09-18T11:05:44;97593.81;;;18.00;100.00
54936;BME280;40838;50.676;7.838;2023-09-18T11:08:30;97575.16;;;18.29;100.00
54936;BME280;40838;50.676;7.838;2023-09-18T11:11:01;97569.63;;;18.43;100.00
54936;BME280;40838;50.676;7.838;2023-09-18T11:13:36;97559.03;;;18.47;100.00
54936;BME280;40838;50.676;7.838;2023-09-18T11:16:14;97573.34;;;18.68;100.00
54936;BME280;40838;50.676;7.838;2023-09-18T11:18:43;97570.94;;;18.75;100.00
54936;BME280;40838;50.676;7.838;2023-09-18T11:21:12;97573.06;;;18.44;100.00
54936;BME280;40838;50.676;7.838;2023-09-18T11:23:39;97571.97;;;18.92;100.00
54936;BME280;40838;50.676;7.838;2023-09-18T11:26:09;97567.19;;;19.27;100.00
54936;BME280;40838;50.676;7.838;2023-09-18T11:28:37;97580.88;;;19.04;100.00
54936;BME280;40838;50.676;7.838;2023-09-18T11:31:04;97574.25;;;18.25;100.00
54936;BME280;40838;50.676;7.838;2023-09-18T11:33:35;97564.47;;;18.76;100.00
54936;BME280;40838;50.676;7.838;2023-09-18T11:36:06;97557.31;;;19.61;100.00
54936;BME280;40838;50.676;7.838;2023-09-18T11:38:34;97555.81;;;20.05;100.00
54936;BME280;40838;50.676;7.838;2023-09-18T11:41:20;97553.94;;;20.06;100.00
54936;BME280;40838;50.676;7.838;2023-09-18T11:43:46;97570.91;;;20.31;100.00
54936;BME280;40838;50.676;7.838;2023-09-18T11:46:18;97577.75;;;19.02;100.00
54936;BME280;40838;50.676;7.838;2023-09-18T11:48:47;97573.31;;;19.06;100.00
54936;BME280;40838;50.676;7.838;2023-09-18T11:51:21;97575.44;;;18.92;100.00
54936;BME280;40838;50.676;7.838;2023-09-18T11:53:51;97556.16;;;19.70;100.00
54936;BME280;40838;50.676;7.838;2023-09-18T11:56:20;97550.13;;;19.52;100.00
54936;BME280;40838;50.676;7.838;2023-09-18T11:58:47;97537.44;;;19.95;100.00
54936;BME280;40838;50.676;7.838;2023-09-18T12:01:15;97545.41;;;19.70;100.00
54936;BME280;40838;50.676;7.838;2023-09-18T12:03:41;97545.56;;;19.53;100.00
54936;BME280;40838;50.676;7.838;2023-09-18T12:06:08;97559.72;;;19.41;100.00
54936;BME280;40838;50.676;7.838;2023-09-18T12:08:40;97564.75;;;19.34;100.00
54936;BME280;40838;50.676;7.838;2023-09-18T12:11:07;97570.38;;;19.71;100.00
54936;BME280;40838;50.676;7.838;2023-09-18T12:13:34;97564.88;;;19.17;100.00
54936;BME280;40838;50.676;7.838;2023-09-18T12:16:02;97540.94;;;20.08;100.00
54936;BME280;40838;50.676;7.838;2023-09-18T12:18:31;97533.19;;;20.39;100.00
54936;BME280;40838;50.676;7.838;2023-09-18T12:21:01;97537.19;;;19.88;100.00
54936;BME280;40838;50.676;7.838;2023-09-18T12:23:36;97541.84;;;20.00;100.00
54936;BME280;40838;50.676;7.838;2023-09-18T12:26:05;97531.81;;;19.55;100.00
54936;BME280;40838;50.676;7.838;2023-09-18T12:28:33;97535.09;;;20.27;100.00
54936;BME280;40838;50.676;7.838;2023-09-18T12:31:00;97527.34;;;19.80;100.00
54936;BME280;40838;50.676;7.838;2023-09-18T12:33:33;97526.03;;;20.68;100.00
54936;BME280;40838;50.676;7.838;2023-09-18T12:36:00;97529.06;;;20.91;100.00
54936;BME280;40838;50.676;7.838;2023-09-18T12:38:28;97534.00;;;20.52;100.00
54936;BME280;40838;50.676;7.838;2023-09-18T12:40:56;97531.97;;;20.04;100.00
54936;BME280;40838;50.676;7.838;2023-09-18T12:43:34;97532.31;;;20.35;100.00
54936;BME280;40838;50.676;7.838;2023-09-18T12:46:02;97537.44;;;19.62;100.00
54936;BME280;40838;50.676;7.838;2023-09-18T12:48:29;97535.00;;;20.72;100.00
54936;BME280;40838;50.676;7.838;2023-09-18T12:51:02;97530.13;;;21.67;100.00
54936;BME280;40838;50.676;7.838;2023-09-18T12:53:32;97526.31;;;21.40;100.00
54936;BME280;40838;50.676;7.838;2023-09-18T12:56:06;97529.84;;;22.29;100.00